Autoridad de Aeronautica Civil de Panamá


taf




 

AERÓDROMOS

 

PRONOSTICO DE AERÓDROMO
TAF

AEROPUERTO INTL. DE TOCUMEN:


TAF MPTO 102300Z 1100/1206 06006KT 9999 SCT018 TEMPO 1108/1110 VRB02KT PROB30 1117/1121 18008KT 7000 SHRA SCT016TCU SCT090=
AEROPUERTO MARCOS A. GELABERT:


TAF MPMG 102300Z 1100/1112 33006KT 9999 SCT018 SCT090=
AEROPUERTO ENRIQUE MALEK:


TAF MPDA 102300Z 1100/1112 20005KT 9999 SCT018=
AEROPUERTO PANAMA PACIFICO:


TAF MPPA 102300Z 1100/1206 02006KT 9999 SCT018 TEMPO 1107/1109 00000KT PROB30 1118/1122 20008KT 7000 SHRA SCT016TCU SCT090=
AEROPUERTO SCARLETT MARTÍNEZ:


TAF MPSM 102300Z 1100/1206 34007KT 9999 SCT018 SCT090 TEMPO 1105/1107 00000KT PROB30 1118/1122 20008KT 7000 SHRA SCT016TCU SCT090=


Contador: 1148